sensor_id;sensor_type;location;lat;lon;timestamp;temperature;humidity
14097;DHT22;7125;48.106;11.544;2022-09-09T00:02:27;14.40;99.90
14097;DHT22;7125;48.106;11.544;2022-09-09T00:05:04;14.40;99.90
14097;DHT22;7125;48.106;11.544;2022-09-09T00:07:47;14.30;99.90
14097;DHT22;7125;48.106;11.544;2022-09-09T00:10:24;14.30;99.90
14097;DHT22;7125;48.106;11.544;2022-09-09T00:12:59;14.30;99.90
14097;DHT22;7125;48.106;11.544;2022-09-09T00:15:32;14.20;99.90
14097;DHT22;7125;48.106;11.544;2022-09-09T00:18:07;14.20;99.90
14097;DHT22;7125;48.106;11.544;2022-09-09T00:20:45;14.20;99.90
14097;DHT22;7125;48.106;11.544;2022-09-09T00:23:19;14.10;99.90
14097;DHT22;7125;48.106;11.544;2022-09-09T00:25:57;14.10;99.90
14097;DHT22;7125;48.106;11.544;2022-09-09T00:28:27;14.10;99.90
14097;DHT22;7125;48.106;11.544;2022-09-09T00:31:00;14.10;99.90
14097;DHT22;7125;48.106;11.544;2022-09-09T00:33:31;14.10;99.90
14097;DHT22;7125;48.106;11.544;2022-09-09T00:35:58;14.10;99.90
14097;DHT22;7125;48.106;11.544;2022-09-09T00:38:31;14.10;99.90
14097;DHT22;7125;48.106;11.544;2022-09-09T00:41:03;14.10;99.90
14097;DHT22;7125;48.106;11.544;2022-09-09T00:43:36;14.10;99.90
14097;DHT22;7125;48.106;11.544;2022-09-09T00:49:05;14.10;99.90
14097;DHT22;7125;48.106;11.544;2022-09-09T00:51:46;14.20;99.90
14097;DHT22;7125;48.106;11.544;2022-09-09T00:54:39;14.20;99.90
14097;DHT22;7125;48.106;11.544;2022-09-09T00:57:18;14.20;99.90
14097;DHT22;7125;48.106;11.544;2022-09-09T00:59:51;14.20;99.90
14097;DHT22;7125;48.106;11.544;2022-09-09T01:02:26;14.20;99.90
14097;DHT22;7125;48.106;11.544;2022-09-09T01:04:58;14.10;99.90
14097;DHT22;7125;48.106;11.544;2022-09-09T01:07:28;14.20;99.90
14097;DHT22;7125;48.106;11.544;2022-09-09T01:09:57;14.20;99.90
14097;DHT22;7125;48.106;11.544;2022-09-09T01:12:30;14.20;99.90
14097;DHT22;7125;48.106;11.544;2022-09-09T01:15:09;14.20;99.90
14097;DHT22;7125;48.106;11.544;2022-09-09T01:17:53;14.30;99.90
14097;DHT22;7125;48.106;11.544;2022-09-09T01:20:24;14.30;99.90
14097;DHT22;7125;48.106;11.544;2022-09-09T01:23:18;14.30;99.90
14097;DHT22;7125;48.106;11.544;2022-09-09T01:26:26;14.30;99.90
14097;DHT22;7125;48.106;11.544;2022-09-09T01:28:59;14.40;99.90
14097;DHT22;7125;48.106;11.544;2022-09-09T01:31:38;14.40;99.90
14097;DHT22;7125;48.106;11.544;2022-09-09T01:34:11;14.50;99.90
14097;DHT22;7125;48.106;11.544;2022-09-09T01:36:43;14.50;99.90
14097;DHT22;7125;48.106;11.544;2022-09-09T01:39:12;14.50;99.90
14097;DHT22;7125;48.106;11.544;2022-09-09T01:41:41;14.50;99.90
14097;DHT22;7125;48.106;11.544;2022-09-09T01:44:12;14.50;99.90
14097;DHT22;7125;48.106;11.544;2022-09-09T01:46:43;14.50;99.90
14097;DHT22;7125;48.106;11.544;2022-09-09T01:49:17;14.60;99.90
14097;DHT22;7125;48.106;11.544;2022-09-09T01:51:47;14.60;99.90
14097;DHT22;7125;48.106;11.544;2022-09-09T01:54:17;14.60;99.90
14097;DHT22;7125;48.106;11.544;2022-09-09T01:56:54;14.60;99.90
14097;DHT22;7125;48.106;11.544;2022-09-09T02:02:17;14.60;99.90
14097;DHT22;7125;48.106;11.544;2022-09-09T02:04:59;14.50;99.90
14097;DHT22;7125;48.106;11.544;2022-09-09T02:07:35;14.50;99.90
14097;DHT22;7125;48.106;11.544;2022-09-09T02:10:11;14.50;99.90
14097;DHT22;7125;48.106;11.544;2022-09-09T02:12:50;14.50;99.90
14097;DHT22;7125;48.106;11.544;2022-09-09T02:15:26;14.40;99.90
14097;DHT22;7125;48.106;11.544;2022-09-09T02:17:57;14.40;99.90
14097;DHT22;7125;48.106;11.544;2022-09-09T02:20:26;14.40;99.90
14097;DHT22;7125;48.106;11.544;2022-09-09T02:22:57;14.40;99.90
14097;DHT22;7125;48.106;11.544;2022-09-09T02:25:28;14.40;99.90
14097;DHT22;7125;48.106;11.544;2022-09-09T02:28:04;14.30;99.90
14097;DHT22;7125;48.106;11.544;2022-09-09T02:30:34;14.30;99.90
14097;DHT22;7125;48.106;11.544;2022-09-09T02:33:04;14.30;99.90
14097;DHT22;7125;48.106;11.544;2022-09-09T02:35:43;14.30;99.90
14097;DHT22;7125;48.106;11.544;2022-09-09T02:38:13;14.30;99.90
14097;DHT22;7125;48.106;11.544;2022-09-09T02:40:50;14.30;99.90
14097;DHT22;7125;48.106;11.544;2022-09-09T02:43:19;14.30;99.90
14097;DHT22;7125;48.106;11.544;2022-09-09T02:45:53;14.30;99.90
14097;DHT22;7125;48.106;11.544;2022-09-09T02:48:31;14.30;99.90
14097;DHT22;7125;48.106;11.544;2022-09-09T02:51:06;14.40;99.90
14097;DHT22;7125;48.106;11.544;2022-09-09T02:53:41;14.40;99.90
14097;DHT22;7125;48.106;11.544;2022-09-09T02:56:14;14.40;99.90
14097;DHT22;7125;48.106;11.544;2022-09-09T02:58:45;14.40;99.90
14097;DHT22;7125;48.106;11.544;2022-09-09T03:01:12;14.50;99.90
14097;DHT22;7125;48.106;11.544;2022-09-09T03:03:40;14.50;99.90
14097;DHT22;7125;48.106;11.544;2022-09-09T03:06:12;14.50;99.90
14097;DHT22;7125;48.106;11.544;2022-09-09T03:08:40;14.50;99.90
14097;DHT22;7125;48.106;11.544;2022-09-09T03:11:07;14.50;99.90
14097;DHT22;7125;48.106;11.544;2022-09-09T03:13:36;14.50;99.90
14097;DHT22;7125;48.106;11.544;2022-09-09T03:16:06;14.50;99.90
14097;DHT22;7125;48.106;11.544;2022-09-09T03:18:40;14.50;99.90
14097;DHT22;7125;48.106;11.544;2022-09-09T03:21:07;14.50;99.90
14097;DHT22;7125;48.106;11.544;2022-09-09T03:23:37;14.50;99.90
14097;DHT22;7125;48.106;11.544;2022-09-09T03:26:05;14.50;99.90
14097;DHT22;7125;48.106;11.544;2022-09-09T03:28:39;14.40;99.90
14097;DHT22;7125;48.106;11.544;2022-09-09T03:31:07;14.50;99.90
14097;DHT22;7125;48.106;11.544;2022-09-09T03:33:38;14.40;99.90
14097;DHT22;7125;48.106;11.544;2022-09-09T03:36:08;14.30;99.90
14097;DHT22;7125;48.106;11.544;2022-09-09T03:38:35;14.30;99.90
14097;DHT22;7125;48.106;11.544;2022-09-09T03:41:02;14.30;99.90
14097;DHT22;7125;48.106;11.544;2022-09-09T03:43:29;14.20;99.90
14097;DHT22;7125;48.106;11.544;2022-09-09T03:45:57;14.20;99.90
14097;DHT22;7125;48.106;11.544;2022-09-09T03:48:27;14.20;99.90
14097;DHT22;7125;48.106;11.544;2022-09-09T03:50:55;14.10;99.90
14097;DHT22;7125;48.106;11.544;2022-09-09T03:53:25;14.10;99.90
14097;DHT22;7125;48.106;11.544;2022-09-09T03:55:54;14.10;99.90
14097;DHT22;7125;48.106;11.544;2022-09-09T03:58:23;14.00;99.90
14097;DHT22;7125;48.106;11.544;2022-09-09T04:00:54;14.00;99.90
14097;DHT22;7125;48.106;11.544;2022-09-09T04:03:21;13.90;99.90
14097;DHT22;7125;48.106;11.544;2022-09-09T04:05:52;13.90;99.90
14097;DHT22;7125;48.106;11.544;2022-09-09T04:08:20;14.00;99.90
14097;DHT22;7125;48.106;11.544;2022-09-09T04:10:49;14.00;99.90
14097;DHT22;7125;48.106;11.544;2022-09-09T04:13:18;14.00;99.90
14097;DHT22;7125;48.106;11.544;2022-09-09T04:15:51;14.10;99.90
14097;DHT22;7125;48.106;11.544;2022-09-09T04:18:18;14.10;99.90
14097;DHT22;7125;48.106;11.544;2022-09-09T04:20:47;14.10;99.90
14097;DHT22;7125;48.106;11.544;2022-09-09T04:23:16;14.20;99.90
14097;DHT22;7125;48.106;11.544;2022-09-09T04:25:44;14.20;99.90
14097;DHT22;7125;48.106;11.544;2022-09-09T04:28:13;14.20;99.90
14097;DHT22;7125;48.106;11.544;2022-09-09T04:30:40;14.20;99.90
14097;DHT22;7125;48.106;11.544;2022-09-09T04:33:07;14.30;99.90
14097;DHT22;7125;48.106;11.544;2022-09-09T04:35:35;14.20;99.90
14097;DHT22;7125;48.106;11.544;2022-09-09T04:38:02;14.30;99.90
14097;DHT22;7125;48.106;11.544;2022-09-09T04:40:32;14.30;99.90
14097;DHT22;7125;48.106;11.544;2022-09-09T04:42:59;14.20;99.90
14097;DHT22;7125;48.106;11.544;2022-09-09T04:45:26;14.20;99.90
14097;DHT22;7125;48.106;11.544;2022-09-09T04:47:53;14.10;99.90
14097;DHT22;7125;48.106;11.544;2022-09-09T04:50:21;14.10;99.90
14097;DHT22;7125;48.106;11.544;2022-09-09T04:52:55;14.10;99.90
14097;DHT22;7125;48.106;11.544;2022-09-09T04:55:22;14.10;99.90
14097;DHT22;7125;48.106;11.544;2022-09-09T04:57:50;14.00;99.90
14097;DHT22;7125;48.106;11.544;2022-09-09T05:00:17;14.00;99.90
14097;DHT22;7125;48.106;11.544;2022-09-09T05:02:44;13.90;99.90
14097;DHT22;7125;48.106;11.544;2022-09-09T05:05:12;13.90;99.90
14097;DHT22;7125;48.106;11.544;2022-09-09T05:07:40;13.90;99.90
14097;DHT22;7125;48.106;11.544;2022-09-09T05:10:08;13.90;99.90
14097;DHT22;7125;48.106;11.544;2022-09-09T05:12:36;13.90;99.90
14097;DHT22;7125;48.106;11.544;2022-09-09T05:15:05;13.90;99.90
14097;DHT22;7125;48.106;11.544;2022-09-09T05:17:32;13.90;99.90
14097;DHT22;7125;48.106;11.544;2022-09-09T05:20:00;13.90;99.90
14097;DHT22;7125;48.106;11.544;2022-09-09T05:22:30;13.90;99.90
14097;DHT22;7125;48.106;11.544;2022-09-09T05:24:57;13.90;99.90
14097;DHT22;7125;48.106;11.544;2022-09-09T05:27:24;14.00;99.90
14097;DHT22;7125;48.106;11.544;2022-09-09T05:29:51;14.00;99.90
14097;DHT22;7125;48.106;11.544;2022-09-09T05:32:19;14.00;99.90
14097;DHT22;7125;48.106;11.544;2022-09-09T05:34:48;14.00;99.90
14097;DHT22;7125;48.106;11.544;2022-09-09T05:37:16;14.10;99.90
14097;DHT22;7125;48.106;11.544;2022-09-09T05:39:44;14.10;99.90
14097;DHT22;7125;48.106;11.544;2022-09-09T05:42:11;14.00;99.90
14097;DHT22;7125;48.106;11.544;2022-09-09T05:44:38;14.10;99.90
14097;DHT22;7125;48.106;11.544;2022-09-09T05:47:05;14.10;99.90
14097;DHT22;7125;48.106;11.544;2022-09-09T05:49:35;14.20;99.90
14097;DHT22;7125;48.106;11.544;2022-09-09T05:52:02;14.20;99.90
14097;DHT22;7125;48.106;11.544;2022-09-09T05:54:29;14.20;99.90
14097;DHT22;7125;48.106;11.544;2022-09-09T05:56:56;14.30;99.90
14097;DHT22;7125;48.106;11.544;2022-09-09T05:59:24;14.30;99.90
14097;DHT22;7125;48.106;11.544;2022-09-09T06:01:54;14.40;99.90
14097;DHT22;7125;48.106;11.544;2022-09-09T06:04:28;14.40;99.90
14097;DHT22;7125;48.106;11.544;2022-09-09T06:06:57;14.40;99.90
14097;DHT22;7125;48.106;11.544;2022-09-09T06:09:24;14.50;99.90
14097;DHT22;7125;48.106;11.544;2022-09-09T06:11:52;14.50;99.90
14097;DHT22;7125;48.106;11.544;2022-09-09T06:14:21;14.60;99.90
14097;DHT22;7125;48.106;11.544;2022-09-09T06:16:50;14.60;99.90
14097;DHT22;7125;48.106;11.544;2022-09-09T06:19:21;14.60;99.90
14097;DHT22;7125;48.106;11.544;2022-09-09T06:21:50;14.70;99.90
14097;DHT22;7125;48.106;11.544;2022-09-09T06:24:18;14.80;99.90
14097;DHT22;7125;48.106;11.544;2022-09-09T06:26:45;15.00;99.90
14097;DHT22;7125;48.106;11.544;2022-09-09T06:29:18;15.20;99.90
14097;DHT22;7125;48.106;11.544;2022-09-09T06:31:45;15.20;99.90
14097;DHT22;7125;48.106;11.544;2022-09-09T06:34:16;15.30;99.90
14097;DHT22;7125;48.106;11.544;2022-09-09T06:36:47;15.40;99.90
14097;DHT22;7125;48.106;11.544;2022-09-09T06:39:13;15.40;99.90
14097;DHT22;7125;48.106;11.544;2022-09-09T06:41:43;15.40;99.90
14097;DHT22;7125;48.106;11.544;2022-09-09T06:44:33;15.40;99.90
14097;DHT22;7125;48.106;11.544;2022-09-09T06:47:00;15.50;99.90
14097;DHT22;7125;48.106;11.544;2022-09-09T06:49:27;15.50;99.90
14097;DHT22;7125;48.106;11.544;2022-09-09T06:51:54;15.50;99.90
14097;DHT22;7125;48.106;11.544;2022-09-09T06:54:21;15.50;99.90
14097;DHT22;7125;48.106;11.544;2022-09-09T06:56:51;15.60;99.90
14097;DHT22;7125;48.106;11.544;2022-09-09T06:59:23;15.70;99.90
14097;DHT22;7125;48.106;11.544;2022-09-09T07:01:52;15.70;99.90
14097;DHT22;7125;48.106;11.544;2022-09-09T07:04:21;15.80;99.90
14097;DHT22;7125;48.106;11.544;2022-09-09T07:06:48;15.90;99.90
14097;DHT22;7125;48.106;11.544;2022-09-09T07:09:21;16.00;99.90
14097;DHT22;7125;48.106;11.544;2022-09-09T07:11:52;16.00;99.90
14097;DHT22;7125;48.106;11.544;2022-09-09T07:14:21;16.00;99.90
14097;DHT22;7125;48.106;11.544;2022-09-09T07:16:55;16.00;99.90
14097;DHT22;7125;48.106;11.544;2022-09-09T07:19:23;16.00;99.90
14097;DHT22;7125;48.106;11.544;2022-09-09T07:21:52;16.00;99.90
14097;DHT22;7125;48.106;11.544;2022-09-09T07:24:22;15.90;99.90
14097;DHT22;7125;48.106;11.544;2022-09-09T07:26:49;15.90;99.90
14097;DHT22;7125;48.106;11.544;2022-09-09T07:29:19;15.80;99.90
14097;DHT22;7125;48.106;11.544;2022-09-09T07:31:46;15.80;99.90
14097;DHT22;7125;48.106;11.544;2022-09-09T07:34:18;15.80;99.90
14097;DHT22;7125;48.106;11.544;2022-09-09T07:36:45;15.80;99.90
14097;DHT22;7125;48.106;11.544;2022-09-09T07:39:13;15.90;99.90
14097;DHT22;7125;48.106;11.544;2022-09-09T07:41:48;15.90;99.90
14097;DHT22;7125;48.106;11.544;2022-09-09T07:44:21;16.00;99.90
14097;DHT22;7125;48.106;11.544;2022-09-09T07:46:55;16.00;99.90
14097;DHT22;7125;48.106;11.544;2022-09-09T07:49:28;16.10;99.90
14097;DHT22;7125;48.106;11.544;2022-09-09T07:51:55;16.20;99.90
14097;DHT22;7125;48.106;11.544;2022-09-09T07:54:23;16.40;99.90
14097;DHT22;7125;48.106;11.544;2022-09-09T07:56:51;16.40;99.90
14097;DHT22;7125;48.106;11.544;2022-09-09T07:59:24;16.50;99.90
14097;DHT22;7125;48.106;11.544;2022-09-09T08:01:53;16.50;99.90
14097;DHT22;7125;48.106;11.544;2022-09-09T08:04:23;16.50;99.90
14097;DHT22;7125;48.106;11.544;2022-09-09T08:06:53;16.60;99.90
14097;DHT22;7125;48.106;11.544;2022-09-09T08:09:22;16.60;99.90
14097;DHT22;7125;48.106;11.544;2022-09-09T08:11:51;16.70;99.90
14097;DHT22;7125;48.106;11.544;2022-09-09T08:14:18;16.70;99.90
14097;DHT22;7125;48.106;11.544;2022-09-09T08:16:48;16.80;99.90
14097;DHT22;7125;48.106;11.544;2022-09-09T08:19:19;16.80;99.90
14097;DHT22;7125;48.106;11.544;2022-09-09T08:21:46;16.80;99.90
14097;DHT22;7125;48.106;11.544;2022-09-09T08:24:14;16.90;99.90
14097;DHT22;7125;48.106;11.544;2022-09-09T08:26:46;16.90;99.90
14097;DHT22;7125;48.106;11.544;2022-09-09T08:29:15;16.90;99.90
14097;DHT22;7125;48.106;11.544;2022-09-09T08:31:44;16.90;99.90
14097;DHT22;7125;48.106;11.544;2022-09-09T08:34:14;16.90;99.90
14097;DHT22;7125;48.106;11.544;2022-09-09T08:36:44;16.90;99.90
14097;DHT22;7125;48.106;11.544;2022-09-09T08:39:14;16.90;99.90
14097;DHT22;7125;48.106;11.544;2022-09-09T08:45:03;17.00;99.90
14097;DHT22;7125;48.106;11.544;2022-09-09T08:47:41;17.00;99.90
14097;DHT22;7125;48.106;11.544;2022-09-09T08:50:22;16.90;99.90
14097;DHT22;7125;48.106;11.544;2022-09-09T08:53:01;16.90;99.90
14097;DHT22;7125;48.106;11.544;2022-09-09T08:55:37;16.90;99.90
14097;DHT22;7125;48.106;11.544;2022-09-09T08:58:12;16.90;99.90
14097;DHT22;7125;48.106;11.544;2022-09-09T09:00:49;16.80;99.90
14097;DHT22;7125;48.106;11.544;2022-09-09T09:03:24;16.90;99.90
14097;DHT22;7125;48.106;11.544;2022-09-09T09:06:01;16.90;99.90
14097;DHT22;7125;48.106;11.544;2022-09-09T09:08:37;16.90;99.90
14097;DHT22;7125;48.106;11.544;2022-09-09T09:11:06;16.90;99.90
14097;DHT22;7125;48.106;11.544;2022-09-09T09:13:39;16.90;99.90
14097;DHT22;7125;48.106;11.544;2022-09-09T09:16:16;16.90;99.90
14097;DHT22;7125;48.106;11.544;2022-09-09T09:18:46;16.90;99.90
14097;DHT22;7125;48.106;11.544;2022-09-09T09:21:16;16.90;99.90
14097;DHT22;7125;48.106;11.544;2022-09-09T09:23:54;16.90;99.90
14097;DHT22;7125;48.106;11.544;2022-09-09T09:26:23;17.00;99.90
14097;DHT22;7125;48.106;11.544;2022-09-09T09:28:55;17.00;99.90
14097;DHT22;7125;48.106;11.544;2022-09-09T09:31:23;17.10;99.90
14097;DHT22;7125;48.106;11.544;2022-09-09T09:33:53;17.20;99.90
14097;DHT22;7125;48.106;11.544;2022-09-09T09:36:37;17.30;99.90
14097;DHT22;7125;48.106;11.544;2022-09-09T09:39:06;17.40;99.90
14097;DHT22;7125;48.106;11.544;2022-09-09T09:41:36;17.50;99.90
14097;DHT22;7125;48.106;11.544;2022-09-09T09:44:06;17.60;99.90
14097;DHT22;7125;48.106;11.544;2022-09-09T09:46:48;17.70;99.90
14097;DHT22;7125;48.106;11.544;2022-09-09T09:49:15;17.70;99.90
14097;DHT22;7125;48.106;11.544;2022-09-09T09:51:44;17.80;99.90
14097;DHT22;7125;48.106;11.544;2022-09-09T09:54:17;17.90;99.90
14097;DHT22;7125;48.106;11.544;2022-09-09T09:56:51;17.80;99.90
14097;DHT22;7125;48.106;11.544;2022-09-09T09:59:21;17.80;99.90
14097;DHT22;7125;48.106;11.544;2022-09-09T10:01:48;17.80;99.90
14097;DHT22;7125;48.106;11.544;2022-09-09T10:04:17;17.80;99.90
14097;DHT22;7125;48.106;11.544;2022-09-09T10:06:47;17.70;99.90
14097;DHT22;7125;48.106;11.544;2022-09-09T10:09:23;17.60;99.90
14097;DHT22;7125;48.106;11.544;2022-09-09T10:11:57;17.50;99.90
14097;DHT22;7125;48.106;11.544;2022-09-09T10:14:30;17.50;99.90
14097;DHT22;7125;48.106;11.544;2022-09-09T10:17:09;17.40;99.90
14097;DHT22;7125;48.106;11.544;2022-09-09T10:19:44;17.40;99.90
14097;DHT22;7125;48.106;11.544;2022-09-09T10:22:25;17.40;99.90
14097;DHT22;7125;48.106;11.544;2022-09-09T10:25:17;17.40;99.90
14097;DHT22;7125;48.106;11.544;2022-09-09T10:27:57;17.40;99.90
14097;DHT22;7125;48.106;11.544;2022-09-09T10:30:34;17.40;99.90
14097;DHT22;7125;48.106;11.544;2022-09-09T10:33:10;17.40;99.90
14097;DHT22;7125;48.106;11.544;2022-09-09T10:35:45;17.40;99.90
14097;DHT22;7125;48.106;11.544;2022-09-09T10:38:20;17.30;99.90
14097;DHT22;7125;48.106;11.544;2022-09-09T10:41:12;17.30;99.90
14097;DHT22;7125;48.106;11.544;2022-09-09T10:46:38;17.40;99.90
14097;DHT22;7125;48.106;11.544;2022-09-09T10:49:16;17.40;99.90
14097;DHT22;7125;48.106;11.544;2022-09-09T10:51:57;17.50;99.90
14097;DHT22;7125;48.106;11.544;2022-09-09T10:54:41;17.50;99.90
14097;DHT22;7125;48.106;11.544;2022-09-09T10:57:24;17.50;99.90
14097;DHT22;7125;48.106;11.544;2022-09-09T10:59:56;17.50;99.90
14097;DHT22;7125;48.106;11.544;2022-09-09T11:02:27;17.60;99.90
14097;DHT22;7125;48.106;11.544;2022-09-09T11:04:58;17.60;99.90
14097;DHT22;7125;48.106;11.544;2022-09-09T11:07:33;17.60;99.90
14097;DHT22;7125;48.106;11.544;2022-09-09T11:10:11;17.70;99.90
14097;DHT22;7125;48.106;11.544;2022-09-09T11:12:41;17.70;99.90
14097;DHT22;7125;48.106;11.544;2022-09-09T11:15:17;17.80;99.90
14097;DHT22;7125;48.106;11.544;2022-09-09T11:17:50;17.90;99.90
14097;DHT22;7125;48.106;11.544;2022-09-09T11:20:20;17.90;99.90
14097;DHT22;7125;48.106;11.544;2022-09-09T11:22:50;18.10;99.90
14097;DHT22;7125;48.106;11.544;2022-09-09T11:25:22;18.20;99.90
14097;DHT22;7125;48.106;11.544;2022-09-09T11:28:02;18.20;99.90
14097;DHT22;7125;48.106;11.544;2022-09-09T11:30:42;18.20;99.90
14097;DHT22;7125;48.106;11.544;2022-09-09T11:42:25;18.40;99.90
14097;DHT22;7125;48.106;11.544;2022-09-09T11:44:53;18.40;99.90
14097;DHT22;7125;48.106;11.544;2022-09-09T11:47:23;18.50;99.90
14097;DHT22;7125;48.106;11.544;2022-09-09T11:49:55;18.50;99.90
14097;DHT22;7125;48.106;11.544;2022-09-09T11:52:24;18.60;99.90
14097;DHT22;7125;48.106;11.544;2022-09-09T11:54:55;18.60;99.90
14097;DHT22;7125;48.106;11.544;2022-09-09T11:57:30;18.60;99.90
14097;DHT22;7125;48.106;11.544;2022-09-09T11:59:58;18.60;99.90
14097;DHT22;7125;48.106;11.544;2022-09-09T12:02:27;18.60;99.90
14097;DHT22;7125;48.106;11.544;2022-09-09T12:04:59;18.70;99.90
14097;DHT22;7125;48.106;11.544;2022-09-09T12:07:32;18.70;99.90
14097;DHT22;7125;48.106;11.544;2022-09-09T12:10:04;18.70;99.90
14097;DHT22;7125;48.106;11.544;2022-09-09T12:12:35;18.70;99.90
14097;DHT22;7125;48.106;11.544;2022-09-09T12:15:25;18.70;99.90
14097;DHT22;7125;48.106;11.544;2022-09-09T12:17:55;18.70;99.90
14097;DHT22;7125;48.106;11.544;2022-09-09T12:20:23;18.80;99.90
14097;DHT22;7125;48.106;11.544;2022-09-09T12:25:56;18.80;99.90
14097;DHT22;7125;48.106;11.544;2022-09-09T12:28:38;18.90;99.90
14097;DHT22;7125;48.106;11.544;2022-09-09T12:31:12;18.90;99.90
14097;DHT22;7125;48.106;11.544;2022-09-09T12:33:44;18.90;99.90
14097;DHT22;7125;48.106;11.544;2022-09-09T12:36:18;19.00;99.90
14097;DHT22;7125;48.106;11.544;2022-09-09T12:38:46;19.00;99.90
14097;DHT22;7125;48.106;11.544;2022-09-09T12:41:20;19.00;99.90
14097;DHT22;7125;48.106;11.544;2022-09-09T12:43:49;19.00;99.90
14097;DHT22;7125;48.106;11.544;2022-09-09T12:46:24;19.00;99.90
14097;DHT22;7125;48.106;11.544;2022-09-09T12:48:53;19.20;99.90
14097;DHT22;7125;48.106;11.544;2022-09-09T12:51:25;19.30;99.90
14097;DHT22;7125;48.106;11.544;2022-09-09T12:53:54;19.40;99.90
14097;DHT22;7125;48.106;11.544;2022-09-09T12:56:23;19.60;99.90
14097;DHT22;7125;48.106;11.544;2022-09-09T12:58:55;19.60;99.90
14097;DHT22;7125;48.106;11.544;2022-09-09T13:01:24;19.50;99.90
14097;DHT22;7125;48.106;11.544;2022-09-09T13:03:52;19.50;99.90
14097;DHT22;7125;48.106;11.544;2022-09-09T13:06:21;19.50;99.90
14097;DHT22;7125;48.106;11.544;2022-09-09T13:08:49;19.40;99.90
14097;DHT22;7125;48.106;11.544;2022-09-09T13:11:18;19.30;99.90
14097;DHT22;7125;48.106;11.544;2022-09-09T13:13:51;19.30;99.90
14097;DHT22;7125;48.106;11.544;2022-09-09T13:16:22;19.20;99.90
14097;DHT22;7125;48.106;11.544;2022-09-09T13:18:49;19.20;99.90
14097;DHT22;7125;48.106;11.544;2022-09-09T13:21:18;19.20;99.90
14097;DHT22;7125;48.106;11.544;2022-09-09T13:23:49;19.10;99.90
14097;DHT22;7125;48.106;11.544;2022-09-09T13:26:22;19.20;99.90
14097;DHT22;7125;48.106;11.544;2022-09-09T13:28:50;19.20;99.90
14097;DHT22;7125;48.106;11.544;2022-09-09T13:31:24;19.20;99.90
14097;DHT22;7125;48.106;11.544;2022-09-09T13:33:54;19.20;99.90
14097;DHT22;7125;48.106;11.544;2022-09-09T13:36:29;19.20;99.90
14097;DHT22;7125;48.106;11.544;2022-09-09T13:38:58;19.10;99.90
14097;DHT22;7125;48.106;11.544;2022-09-09T13:41:35;19.10;99.90
14097;DHT22;7125;48.106;11.544;2022-09-09T13:44:02;19.10;99.90
14097;DHT22;7125;48.106;11.544;2022-09-09T13:46:35;19.10;99.90
14097;DHT22;7125;48.106;11.544;2022-09-09T13:49:21;19.10;99.90
14097;DHT22;7125;48.106;11.544;2022-09-09T13:51:50;19.10;99.90
14097;DHT22;7125;48.106;11.544;2022-09-09T13:54:20;19.00;99.90
14097;DHT22;7125;48.106;11.544;2022-09-09T13:56:48;18.90;99.90
14097;DHT22;7125;48.106;11.544;2022-09-09T13:59:17;18.90;99.90
14097;DHT22;7125;48.106;11.544;2022-09-09T14:01:46;18.80;99.90
14097;DHT22;7125;48.106;11.544;2022-09-09T14:04:15;18.70;99.90
14097;DHT22;7125;48.106;11.544;2022-09-09T14:06:42;18.70;99.90
14097;DHT22;7125;48.106;11.544;2022-09-09T14:09:12;18.60;99.90
14097;DHT22;7125;48.106;11.544;2022-09-09T14:11:39;18.60;99.90
14097;DHT22;7125;48.106;11.544;2022-09-09T14:14:06;18.60;99.90
14097;DHT22;7125;48.106;11.544;2022-09-09T14:16:34;18.50;99.90
14097;DHT22;7125;48.106;11.544;2022-09-09T14:19:03;18.60;99.90
14097;DHT22;7125;48.106;11.544;2022-09-09T14:21:30;18.60;99.90
14097;DHT22;7125;48.106;11.544;2022-09-09T14:23:58;18.60;99.90
14097;DHT22;7125;48.106;11.544;2022-09-09T14:26:25;18.70;99.90
14097;DHT22;7125;48.106;11.544;2022-09-09T14:28:52;18.70;99.90
14097;DHT22;7125;48.106;11.544;2022-09-09T14:31:19;18.60;99.90
14097;DHT22;7125;48.106;11.544;2022-09-09T14:33:46;18.60;99.90
14097;DHT22;7125;48.106;11.544;2022-09-09T14:36:15;18.50;99.90
14097;DHT22;7125;48.106;11.544;2022-09-09T14:38:42;18.40;99.90
14097;DHT22;7125;48.106;11.544;2022-09-09T14:41:09;18.30;99.90
14097;DHT22;7125;48.106;11.544;2022-09-09T14:43:37;18.20;99.90
14097;DHT22;7125;48.106;11.544;2022-09-09T14:46:05;18.30;99.90
14097;DHT22;7125;48.106;11.544;2022-09-09T14:48:32;18.20;99.90
14097;DHT22;7125;48.106;11.544;2022-09-09T14:51:05;18.20;99.90
14097;DHT22;7125;48.106;11.544;2022-09-09T14:53:33;18.20;99.90
14097;DHT22;7125;48.106;11.544;2022-09-09T14:56:05;18.20;99.90
14097;DHT22;7125;48.106;11.544;2022-09-09T14:58:32;18.20;99.90
14097;DHT22;7125;48.106;11.544;2022-09-09T15:01:04;18.10;99.90
14097;DHT22;7125;48.106;11.544;2022-09-09T15:03:31;18.00;99.90
14097;DHT22;7125;48.106;11.544;2022-09-09T15:06:04;18.10;99.90
14097;DHT22;7125;48.106;11.544;2022-09-09T15:08:31;18.10;99.90
14097;DHT22;7125;48.106;11.544;2022-09-09T15:11:04;18.10;99.90
14097;DHT22;7125;48.106;11.544;2022-09-09T15:13:32;18.10;99.90
14097;DHT22;7125;48.106;11.544;2022-09-09T15:16:04;18.20;99.90
14097;DHT22;7125;48.106;11.544;2022-09-09T15:18:31;18.20;99.90
14097;DHT22;7125;48.106;11.544;2022-09-09T15:20:58;18.20;99.90
14097;DHT22;7125;48.106;11.544;2022-09-09T15:23:26;18.20;99.90
14097;DHT22;7125;48.106;11.544;2022-09-09T15:25:54;18.20;99.90
14097;DHT22;7125;48.106;11.544;2022-09-09T15:28:23;18.20;99.90
14097;DHT22;7125;48.106;11.544;2022-09-09T15:30:51;18.10;99.90
14097;DHT22;7125;48.106;11.544;2022-09-09T15:33:18;18.10;99.90
14097;DHT22;7125;48.106;11.544;2022-09-09T15:35:46;18.00;99.90
14097;DHT22;7125;48.106;11.544;2022-09-09T15:38:13;18.00;99.90
14097;DHT22;7125;48.106;11.544;2022-09-09T15:40:40;18.00;99.90
14097;DHT22;7125;48.106;11.544;2022-09-09T15:43:08;18.00;99.90
14097;DHT22;7125;48.106;11.544;2022-09-09T15:45:37;18.00;99.90
14097;DHT22;7125;48.106;11.544;2022-09-09T15:48:04;18.10;99.90
14097;DHT22;7125;48.106;11.544;2022-09-09T15:50:31;18.30;99.90
14097;DHT22;7125;48.106;11.544;2022-09-09T15:52:58;18.60;99.90
14097;DHT22;7125;48.106;11.544;2022-09-09T15:55:25;18.80;99.90
14097;DHT22;7125;48.106;11.544;2022-09-09T15:57:52;19.00;99.90
14097;DHT22;7125;48.106;11.544;2022-09-09T16:00:21;19.00;99.90
14097;DHT22;7125;48.106;11.544;2022-09-09T16:02:51;18.90;99.90
14097;DHT22;7125;48.106;11.544;2022-09-09T16:05:18;18.70;99.90
14097;DHT22;7125;48.106;11.544;2022-09-09T16:07:46;18.50;99.90
14097;DHT22;7125;48.106;11.544;2022-09-09T16:10:13;18.40;99.90
14097;DHT22;7125;48.106;11.544;2022-09-09T16:12:40;18.20;99.90
14097;DHT22;7125;48.106;11.544;2022-09-09T16:15:07;18.10;99.90
14097;DHT22;7125;48.106;11.544;2022-09-09T16:17:34;18.00;99.90
14097;DHT22;7125;48.106;11.544;2022-09-09T16:20:05;18.00;99.90